createdAt,value
2023-04-28T00:01:22.512Z,59.49
2023-04-28T00:06:26.109Z,58.78
2023-04-28T00:11:29.462Z,58.10
2023-04-28T00:16:33.248Z,58.74
2023-04-28T00:21:37.091Z,58.25
2023-04-28T00:26:40.657Z,58.68
2023-04-28T00:31:45.315Z,59.15
2023-04-28T00:36:48.683Z,58.94
2023-04-28T00:41:51.991Z,59.06
2023-04-28T00:46:56.855Z,59.21
2023-04-28T00:52:05.260Z,59.34
2023-04-28T00:57:10.345Z,59.49
2023-04-28T01:02:17.690Z,59.05
2023-04-28T01:07:24.511Z,59.62
2023-04-28T01:12:28.317Z,59.77
2023-04-28T01:17:40.029Z,59.40
2023-04-28T01:29:07.818Z,59.08
2023-04-28T01:34:11.315Z,59.68
2023-04-28T01:39:15.274Z,59.60
2023-04-28T01:44:19.191Z,58.87
2023-04-28T01:49:25.495Z,58.41
2023-04-28T01:54:29.044Z,58.57
2023-04-28T01:59:32.327Z,58.13
2023-04-28T02:04:35.719Z,57.94
2023-04-28T02:16:48.297Z,58.77
2023-04-28T02:21:51.970Z,58.27
2023-04-28T02:26:55.903Z,57.79
2023-04-28T02:31:59.442Z,58.15
2023-04-28T02:37:11.819Z,57.54
2023-04-28T02:42:15.218Z,57.49
2023-04-28T02:47:18.465Z,57.56
2023-04-28T02:52:21.854Z,57.75
2023-04-28T02:57:25.477Z,58.24
2023-04-28T03:02:29.029Z,58.41
2023-04-28T03:07:32.362Z,57.79
2023-04-28T03:12:35.783Z,57.22
2023-04-28T03:17:42.080Z,58.25
2023-04-28T03:22:45.609Z,57.72
2023-04-28T03:27:48.993Z,57.93
2023-04-28T03:32:52.889Z,58.23
2023-04-28T03:37:56.232Z,58.67
2023-04-28T03:43:00.195Z,59.17
2023-04-28T03:48:09.858Z,59.35
2023-04-28T03:53:13.210Z,59.86
2023-04-28T03:58:17.074Z,60.13
2023-04-28T04:03:23.226Z,60.35
2023-04-28T04:08:26.952Z,60.44
2023-04-28T04:13:30.192Z,60.78
2023-04-28T04:18:33.912Z,61.15
2023-04-28T04:24:07.079Z,61.29
2023-04-28T04:29:11.227Z,61.58
2023-04-28T04:34:15.826Z,61.93
2023-04-28T04:39:19.463Z,62.05
2023-04-28T04:44:24.729Z,61.92
2023-04-28T04:49:31.223Z,62.19
2023-04-28T04:54:42.629Z,62.04
2023-04-28T04:59:46.376Z,61.96
2023-04-28T05:04:54.518Z,62.02
2023-04-28T05:10:00.986Z,60.93
2023-04-28T05:15:08.546Z,60.81
2023-04-28T05:20:15.314Z,60.50
2023-04-28T05:25:18.747Z,59.03
2023-04-28T05:30:22.242Z,57.51
2023-04-28T05:35:26.619Z,55.50
2023-04-28T05:40:30.291Z,54.62
2023-04-28T05:45:33.828Z,53.50
2023-04-28T05:50:38.894Z,52.61
2023-04-28T05:55:42.917Z,52.63
2023-04-28T06:00:47.062Z,51.81
2023-04-28T06:05:50.690Z,50.73
2023-04-28T06:10:54.334Z,49.76
2023-04-28T06:15:58.636Z,49.61
2023-04-28T06:21:02.499Z,48.48
2023-04-28T06:26:05.846Z,47.69
2023-04-28T06:31:09.606Z,47.90
2023-04-28T06:36:14.231Z,47.80
2023-04-28T06:41:17.552Z,46.85
2023-04-28T06:46:24.579Z,46.53
2023-04-28T06:51:29.041Z,46.67
2023-04-28T06:56:33.372Z,46.08
2023-04-28T07:01:36.973Z,45.92
2023-04-28T07:06:41.171Z,45.08
2023-04-28T07:11:45.070Z,44.79
2023-04-28T07:22:05.712Z,45.09
2023-04-28T07:27:09.212Z,44.43
2023-04-28T07:32:12.662Z,43.58
2023-04-28T07:37:16.990Z,43.54
2023-04-28T07:42:20.364Z,42.94
2023-04-28T07:47:24.139Z,42.17
2023-04-28T07:52:27.637Z,40.13
2023-04-28T07:57:31.769Z,38.80
2023-04-28T08:02:35.182Z,38.67
2023-04-28T08:07:38.885Z,38.22
2023-04-28T08:12:42.424Z,38.21
2023-04-28T08:17:45.766Z,40.29
2023-04-28T08:22:49.010Z,40.97
2023-04-28T08:27:53.477Z,36.91
2023-04-28T08:32:58.005Z,36.72
2023-04-28T08:38:01.617Z,35.86
2023-04-28T08:43:05.281Z,34.50
2023-04-28T08:48:22.301Z,33.82
2023-04-28T08:53:27.085Z,33.20
2023-04-28T08:58:31.310Z,33.43
2023-04-28T09:03:34.896Z,33.67
2023-04-28T09:08:38.199Z,34.03
2023-04-28T09:13:42.176Z,33.20
2023-04-28T09:19:00.866Z,33.08
2023-04-28T09:24:05.607Z,32.22
2023-04-28T09:29:15.108Z,31.97
2023-04-28T09:34:18.807Z,32.25
2023-04-28T09:39:30.934Z,33.24
2023-04-28T09:44:34.204Z,32.54
2023-04-28T09:49:55.343Z,31.44
2023-04-28T09:54:58.696Z,31.10
2023-04-28T10:00:06.390Z,31.83
2023-04-28T10:05:11.138Z,32.62
2023-04-28T10:10:20.767Z,32.29
2023-04-28T10:15:25.086Z,31.18
2023-04-28T10:20:34.023Z,31.14
2023-04-28T10:25:38.987Z,34.14
2023-04-28T10:30:42.451Z,32.48
2023-04-28T10:35:47.957Z,29.70
2023-04-28T10:41:01.309Z,29.11
2023-04-28T10:46:06.814Z,28.51
2023-04-28T10:51:10.396Z,28.82
2023-04-28T10:56:25.108Z,29.88
2023-04-28T11:01:35.122Z,29.09
2023-04-28T11:06:46.162Z,27.54
2023-04-28T11:11:58.081Z,28.37
2023-04-28T11:17:06.600Z,29.22
2023-04-28T11:22:22.131Z,28.79
2023-04-28T11:27:27.121Z,27.29
2023-04-28T11:32:33.079Z,28.55
2023-04-28T11:37:36.610Z,33.11
2023-04-28T11:42:50.114Z,31.17
2023-04-28T11:47:53.532Z,31.32
2023-04-28T11:52:56.928Z,29.17
2023-04-28T11:58:25.321Z,27.64
2023-04-28T12:03:28.583Z,26.14
2023-04-28T12:08:31.719Z,26.33
2023-04-28T12:13:36.437Z,26.47
2023-04-28T12:18:59.019Z,24.97
2023-04-28T12:24:16.273Z,24.18
2023-04-28T12:29:40.913Z,25.27
2023-04-28T12:34:46.876Z,24.11
2023-04-28T12:39:50.486Z,23.66
2023-04-28T12:44:53.607Z,23.53
2023-04-28T12:49:56.596Z,23.88
2023-04-28T12:55:00.218Z,23.46
2023-04-28T13:00:03.690Z,24.03
2023-04-28T13:05:07.523Z,24.32
2023-04-28T13:10:10.796Z,23.32
2023-04-28T13:15:13.881Z,23.21
2023-04-28T13:20:17.334Z,23.99
2023-04-28T13:25:20.888Z,23.77
2023-04-28T13:30:23.887Z,24.62
2023-04-28T13:35:30.307Z,26.42
2023-04-28T13:40:34.683Z,26.46
2023-04-28T13:45:37.764Z,25.68
2023-04-28T13:50:40.855Z,24.64
2023-04-28T13:55:44.026Z,24.44
2023-04-28T14:00:47.728Z,24.38
2023-04-28T14:05:56.657Z,24.38
2023-04-28T14:11:01.334Z,23.88
2023-04-28T14:16:04.722Z,23.23
2023-04-28T14:25:38.869Z,25.90
2023-04-28T14:30:42.396Z,26.18
2023-04-28T14:35:45.846Z,26.02
2023-04-28T14:40:49.230Z,26.70
2023-04-28T14:45:53.124Z,27.14
2023-04-28T14:50:57.624Z,26.83
2023-04-28T14:56:16.813Z,26.61
2023-04-28T15:01:24.670Z,27.36
2023-04-28T15:06:28.288Z,27.41
2023-04-28T15:11:32.391Z,27.80
2023-04-28T15:16:35.449Z,27.92
2023-04-28T15:21:39.009Z,28.95
2023-04-28T15:26:42.612Z,30.01
2023-04-28T15:31:45.768Z,29.78
2023-04-28T15:36:54.635Z,29.71
2023-04-28T15:41:59.660Z,29.62
2023-04-28T15:47:02.829Z,29.46
2023-04-28T15:52:05.885Z,28.62
2023-04-28T15:57:09.341Z,28.54
2023-04-28T16:02:12.392Z,28.31
2023-04-28T16:07:15.526Z,27.71
2023-04-28T16:12:18.581Z,27.87
2023-04-28T16:17:23.020Z,28.10
2023-04-28T16:22:26.176Z,28.05
2023-04-28T16:27:29.871Z,28.92
2023-04-28T16:32:36.362Z,29.51
2023-04-28T16:37:41.072Z,29.26
2023-04-28T16:42:57.105Z,29.38
2023-04-28T16:48:00.093Z,29.32
2023-04-28T16:53:03.282Z,30.03
2023-04-28T16:58:06.704Z,30.37
2023-04-28T17:03:09.809Z,29.31
2023-04-28T17:08:12.982Z,29.22
2023-04-28T17:13:16.211Z,29.90
2023-04-28T17:18:19.270Z,29.89
2023-04-28T17:23:22.723Z,30.02
2023-04-28T17:28:26.321Z,31.02
2023-04-28T17:33:29.728Z,32.10
2023-04-28T17:38:33.033Z,32.33
2023-04-28T17:43:39.543Z,31.96
2023-04-28T17:48:43.250Z,32.25
2023-04-28T17:53:49.197Z,31.88
2023-04-28T17:58:52.598Z,31.80
2023-04-28T18:04:06.478Z,31.84
2023-04-28T18:09:09.826Z,31.59
2023-04-28T18:14:16.139Z,32.21
2023-04-28T18:19:19.280Z,32.14
2023-04-28T18:24:22.655Z,32.34
2023-04-28T18:29:26.272Z,32.80
2023-04-28T18:34:29.574Z,33.24
2023-04-28T18:39:32.733Z,33.15
2023-04-28T18:44:36.014Z,33.26
2023-04-28T18:49:40.104Z,33.37
2023-04-28T18:54:43.842Z,33.75
2023-04-28T18:59:47.252Z,33.89
2023-04-28T19:04:51.562Z,33.85
2023-04-28T19:09:55.163Z,34.19
2023-04-28T19:14:58.367Z,34.24
2023-04-28T19:20:01.482Z,34.31
2023-04-28T19:25:07.014Z,34.29
2023-04-28T19:30:12.796Z,35.82
2023-04-28T19:35:16.163Z,34.84
2023-04-28T19:40:19.389Z,34.99
2023-04-28T19:45:22.583Z,35.65
2023-04-28T19:50:25.717Z,35.78
2023-04-28T19:55:29.387Z,36.01
2023-04-28T20:00:32.743Z,36.41
2023-04-28T20:05:39.016Z,36.64
2023-04-28T20:10:42.585Z,37.16
2023-04-28T20:15:45.641Z,37.27
2023-04-28T20:20:52.416Z,37.38
2023-04-28T20:25:55.580Z,37.39
2023-04-28T20:30:58.972Z,37.69
2023-04-28T20:36:02.154Z,38.02
2023-04-28T20:41:05.621Z,38.31
2023-04-28T20:46:13.564Z,38.73
2023-04-28T20:51:17.601Z,38.80
2023-04-28T20:56:20.936Z,39.26
2023-04-28T21:01:24.079Z,39.73
2023-04-28T21:06:27.129Z,40.31
2023-04-28T21:11:30.623Z,40.31
2023-04-28T21:16:33.703Z,40.75
2023-04-28T21:21:37.786Z,40.98
2023-04-28T21:26:41.043Z,41.42
2023-04-28T21:31:44.716Z,41.67
2023-04-28T21:36:47.836Z,42.05
2023-04-28T21:41:50.859Z,42.88
2023-04-28T21:46:53.873Z,42.72
2023-04-28T21:51:56.936Z,42.69
2023-04-28T21:56:59.956Z,42.71
2023-04-28T22:02:03.245Z,43.11
2023-04-28T22:07:06.725Z,43.52
2023-04-28T22:12:09.779Z,43.50
2023-04-28T22:17:12.768Z,43.93
2023-04-28T22:22:16.298Z,44.34
2023-04-28T22:27:19.409Z,44.67
2023-04-28T22:32:22.686Z,45.33
2023-04-28T22:37:26.047Z,45.31
2023-04-28T22:42:29.798Z,45.53
2023-04-28T22:47:36.370Z,45.65
2023-04-28T22:52:39.651Z,45.94
2023-04-28T22:57:42.698Z,46.01
2023-04-28T23:02:46.044Z,46.78
2023-04-28T23:07:49.349Z,46.59
2023-04-28T23:12:52.552Z,46.74
2023-04-28T23:17:55.547Z,47.08
2023-04-28T23:22:59.514Z,47.22
2023-04-28T23:28:02.608Z,47.60
2023-04-28T23:33:06.117Z,47.70
2023-04-28T23:38:09.097Z,47.51
2023-04-28T23:43:13.086Z,47.49
2023-04-28T23:48:16.019Z,47.67
2023-04-28T23:53:19.155Z,47.98
2023-04-28T23:58:22.208Z,48.09
